Time;durP1;ratioP1;P1;durP2;ratioP2;P2;SDS_P1;SDS_P2;PMS_P1;PMS_P2;Temp;Humidity;BMP_temperature;BMP_pressure;BME280_temperature;BME280_humidity;BME280_pressure;Samples;Min_cycle;Max_cycle;Signal;HPM_P1;HPM_P2
2021/08/21 00:01:04;;;;;;;5.72;3.13;;;;;;;;;;5035588;28;20032;-52
2021/08/21 00:03:30;;;;;;;4.25;2.55;;;;;;;;;;5036070;28;20026;-52
2021/08/21 00:05:56;;;;;;;6.32;3.47;;;;;;;;;;5035898;28;20024;-52
2021/08/21 00:08:22;;;;;;;7.55;3.03;;;;;;;;;;5036161;28;20339;-52
2021/08/21 00:10:50;;;;;;;4.78;2.58;;;;;;;;;;5034368;28;20113;-52
2021/08/21 00:13:16;;;;;;;4.22;2.83;;;;;;;;;;5035912;28;20113;-52
2021/08/21 00:15:42;;;;;;;5.80;2.92;;;;;;;;;;5035533;28;20072;-52
2021/08/21 00:18:08;;;;;;;7.05;2.88;;;;;;;;;;5035714;28;20402;-52
2021/08/21 00:20:34;;;;;;;5.72;2.90;;;;;;;;;;5034681;28;20044;-52
2021/08/21 00:23:00;;;;;;;5.93;2.88;;;;;;;;;;5035562;28;20071;-52
2021/08/21 00:25:26;;;;;;;5.55;3.10;;;;;;;;;;5034004;28;20444;-52
2021/08/21 00:27:52;;;;;;;4.60;3.15;;;;;;;;;;5035661;28;20022;-52
2021/08/21 00:30:18;;;;;;;4.22;3.00;;;;;;;;;;5034851;28;20451;-52
2021/08/21 00:32:44;;;;;;;3.92;2.88;;;;;;;;;;5034582;28;20585;-52
2021/08/21 00:35:10;;;;;;;4.53;2.63;;;;;;;;;;5033866;28;20351;-52
2021/08/21 00:37:37;;;;;;;4.97;3.15;;;;;;;;;;5035041;28;20025;-52
2021/08/21 00:40:03;;;;;;;5.47;3.38;;;;;;;;;;5035032;28;20025;-52
2021/08/21 00:42:29;;;;;;;6.38;3.50;;;;;;;;;;5034656;28;20286;-52
2021/08/21 00:44:55;;;;;;;9.10;3.45;;;;;;;;;;5034976;28;20045;-52
2021/08/21 00:47:21;;;;;;;7.18;2.88;;;;;;;;;;5035194;28;20475;-52
2021/08/21 00:49:49;;;;;;;4.05;2.80;;;;;;;;;;5034589;28;20083;-52
2021/08/21 00:52:19;;;;;;;5.43;2.95;;;;;;;;;;5034293;28;20359;-52
2021/08/21 00:54:45;;;;;;;4.07;2.42;;;;;;;;;;5034986;28;20450;-52
2021/08/21 00:57:12;;;;;;;4.43;2.88;;;;;;;;;;5034570;28;20029;-52
2021/08/21 00:59:39;;;;;;;11.63;3.72;;;;;;;;;;5031560;28;20521;-52
2021/08/21 01:02:08;;;;;;;5.65;3.22;;;;;;;;;;5034182;28;20017;-52
2021/08/21 01:04:37;;;;;;;14.68;6.57;;;;;;;;;;5034842;28;20095;-52
2021/08/21 01:07:07;;;;;;;14.98;7.03;;;;;;;;;;5034695;28;20025;-52
2021/08/21 01:09:35;;;;;;;13.97;7.63;;;;;;;;;;5034283;28;20053;-52
2021/08/21 01:12:01;;;;;;;17.40;7.63;;;;;;;;;;5034093;28;20371;-52
2021/08/21 01:14:28;;;;;;;11.60;5.65;;;;;;;;;;5034313;28;20467;-52
2021/08/21 01:16:57;;;;;;;14.25;5.90;;;;;;;;;;5034452;28;20325;-53
2021/08/21 01:19:24;;;;;;;11.68;5.15;;;;;;;;;;5034146;28;20448;-52
2021/08/21 01:21:50;;;;;;;10.63;4.65;;;;;;;;;;5033712;28;20037;-52
2021/08/21 01:24:16;;;;;;;9.50;4.70;;;;;;;;;;5034081;28;20068;-52
2021/08/21 01:26:55;;;;;;;13.18;5.75;;;;;;;;;;5033399;28;20043;-52
2021/08/21 01:29:21;;;;;;;9.23;4.57;;;;;;;;;;5034022;28;20459;-52
2021/08/21 01:31:47;;;;;;;14.52;4.70;;;;;;;;;;5033417;28;20040;-53
2021/08/21 01:34:13;;;;;;;10.52;4.50;;;;;;;;;;5034185;28;20470;-52
2021/08/21 01:36:43;;;;;;;8.65;4.50;;;;;;;;;;5034081;28;20018;-52
2021/08/21 01:39:09;;;;;;;6.13;3.83;;;;;;;;;;5034207;28;20029;-52
2021/08/21 01:41:35;;;;;;;9.25;3.78;;;;;;;;;;5032958;28;20060;-52
2021/08/21 01:44:01;;;;;;;12.90;3.78;;;;;;;;;;5033906;28;20506;-52
2021/08/21 01:46:27;;;;;;;5.05;2.47;;;;;;;;;;5033806;28;20116;-52
2021/08/21 01:48:53;;;;;;;5.60;2.90;;;;;;;;;;5034071;28;20022;-52
2021/08/21 01:51:19;;;;;;;5.40;2.90;;;;;;;;;;5033307;28;20461;-52
2021/08/21 01:53:45;;;;;;;6.88;3.10;;;;;;;;;;5033592;28;20037;-51
2021/08/21 01:56:11;;;;;;;4.60;2.90;;;;;;;;;;5033623;28;20120;-52
2021/08/21 01:58:37;;;;;;;4.18;2.75;;;;;;;;;;5033762;28;20343;-52
2021/08/21 02:01:04;;;;;;;4.68;3.00;;;;;;;;;;5032950;28;20376;-52
2021/08/21 02:03:31;;;;;;;4.65;2.72;;;;;;;;;;5033207;28;20052;-52
2021/08/21 02:05:57;;;;;;;6.68;2.88;;;;;;;;;;5033534;28;20370;-52
2021/08/21 02:08:23;;;;;;;10.50;3.28;;;;;;;;;;5033501;28;20025;-52
2021/08/21 02:10:49;;;;;;;8.43;2.97;;;;;;;;;;5032551;28;20095;-51
2021/08/21 02:13:15;;;;;;;5.72;2.95;;;;;;;;;;5033161;28;20116;-52
2021/08/21 02:15:41;;;;;;;6.55;2.90;;;;;;;;;;5033771;28;20017;-52
2021/08/21 02:18:07;;;;;;;5.50;2.80;;;;;;;;;;5032927;28;20053;-52
2021/08/21 02:20:33;;;;;;;4.68;3.30;;;;;;;;;;5032900;28;20033;-52
2021/08/21 02:22:59;;;;;;;7.95;3.30;;;;;;;;;;5032886;28;20105;-52
2021/08/21 02:25:25;;;;;;;3.88;2.25;;;;;;;;;;5025918;28;20046;-52
2021/08/21 02:27:56;;;;;;;4.13;2.30;;;;;;;;;;5032949;28;20029;-52
2021/08/21 02:30:22;;;;;;;3.50;2.13;;;;;;;;;;5032913;28;20052;-52
2021/08/21 02:32:48;;;;;;;5.63;3.30;;;;;;;;;;5032831;28;20378;-52
2021/08/21 02:35:15;;;;;;;4.70;3.13;;;;;;;;;;5032636;28;20520;-52
2021/08/21 02:37:41;;;;;;;5.05;2.58;;;;;;;;;;5032854;28;20536;-52
2021/08/21 02:40:07;;;;;;;5.15;2.75;;;;;;;;;;5032500;28;20022;-52
2021/08/21 02:42:33;;;;;;;6.18;2.72;;;;;;;;;;5032625;28;20047;-52
2021/08/21 02:44:59;;;;;;;4.13;2.67;;;;;;;;;;5032998;28;20022;-52
2021/08/21 02:47:25;;;;;;;6.38;2.97;;;;;;;;;;5032632;28;20027;-52
2021/08/21 02:49:51;;;;;;;5.78;3.13;;;;;;;;;;5032762;28;20107;-52
2021/08/21 02:52:17;;;;;;;4.47;3.05;;;;;;;;;;5032284;28;20083;-52
2021/08/21 02:54:43;;;;;;;5.95;2.63;;;;;;;;;;5032997;28;20067;-52
2021/08/21 02:57:09;;;;;;;5.68;3.03;;;;;;;;;;5032660;28;20049;-52
2021/08/21 02:59:35;;;;;;;7.30;3.03;;;;;;;;;;5031759;28;20064;-52
2021/08/21 03:02:01;;;;;;;7.22;3.13;;;;;;;;;;5032354;28;20021;-52
2021/08/21 03:04:26;;;;;;;6.22;3.20;;;;;;;;;;5033006;28;20417;-52
2021/08/21 03:06:52;;;;;;;6.57;3.20;;;;;;;;;;5032673;28;20068;-52
2021/08/21 03:09:18;;;;;;;6.55;3.20;;;;;;;;;;5032123;28;20022;-52
2021/08/21 03:11:44;;;;;;;6.97;2.97;;;;;;;;;;5032195;28;20029;-52
2021/08/21 03:14:10;;;;;;;6.63;3.22;;;;;;;;;;5032910;28;20037;-52
2021/08/21 03:16:36;;;;;;;7.05;2.85;;;;;;;;;;5032756;28;20028;-52
2021/08/21 03:19:02;;;;;;;4.65;2.80;;;;;;;;;;5031962;28;20444;-52
2021/08/21 03:21:28;;;;;;;4.85;2.95;;;;;;;;;;5032137;28;20033;-52
2021/08/21 03:23:54;;;;;;;7.53;3.05;;;;;;;;;;5032714;28;20032;-52
2021/08/21 03:26:20;;;;;;;7.00;3.30;;;;;;;;;;5031534;28;20447;-52
2021/08/21 03:28:46;;;;;;;7.32;3.08;;;;;;;;;;5032198;28;20076;-52
2021/08/21 03:31:12;;;;;;;4.85;2.75;;;;;;;;;;5031803;28;20026;-51
2021/08/21 03:33:38;;;;;;;5.97;2.95;;;;;;;;;;5032034;28;20438;-52
2021/08/21 03:36:05;;;;;;;5.95;3.22;;;;;;;;;;5032537;28;20017;-52
2021/08/21 03:38:31;;;;;;;5.50;3.22;;;;;;;;;;5032975;28;20038;-52
2021/08/21 03:40:57;;;;;;;4.57;3.22;;;;;;;;;;5031671;28;20014;-52
2021/08/21 03:43:23;;;;;;;9.65;2.80;;;;;;;;;;5032111;28;20466;-52
2021/08/21 03:45:49;;;;;;;4.65;3.20;;;;;;;;;;5032155;28;20065;-52
2021/08/21 03:48:15;;;;;;;6.28;3.05;;;;;;;;;;5032661;28;20100;-51
2021/08/21 03:50:40;;;;;;;4.85;2.92;;;;;;;;;;5031695;28;20068;-51
2021/08/21 03:53:06;;;;;;;4.22;3.00;;;;;;;;;;5032196;28;20049;-51
2021/08/21 03:55:33;;;;;;;4.88;2.90;;;;;;;;;;5032430;28;20083;-52
2021/08/21 03:58:00;;;;;;;3.95;3.00;;;;;;;;;;5032052;28;20037;-52
2021/08/21 04:00:26;;;;;;;6.07;3.17;;;;;;;;;;5031643;28;20086;-52
2021/08/21 04:02:52;;;;;;;4.30;3.05;;;;;;;;;;5031751;28;20443;-52
2021/08/21 04:05:18;;;;;;;6.53;3.15;;;;;;;;;;5032581;28;20018;-52
2021/08/21 04:07:44;;;;;;;5.32;3.20;;;;;;;;;;5031969;28;20033;-52
2021/08/21 04:10:10;;;;;;;6.07;3.00;;;;;;;;;;5034334;28;20029;-52
2021/08/21 04:12:36;;;;;;;7.82;3.72;;;;;;;;;;5034876;28;20025;-52
2021/08/21 04:15:03;;;;;;;4.70;3.10;;;;;;;;;;5035938;28;20029;-52
2021/08/21 04:17:29;;;;;;;5.82;3.13;;;;;;;;;;5035757;28;20036;-52
2021/08/21 04:19:55;;;;;;;7.97;3.33;;;;;;;;;;5035215;28;20025;-52
2021/08/21 04:22:21;;;;;;;4.53;3.10;;;;;;;;;;5034807;28;20030;-52
2021/08/21 04:24:47;;;;;;;5.53;3.22;;;;;;;;;;5034421;28;20375;-52
2021/08/21 04:27:13;;;;;;;6.25;3.20;;;;;;;;;;5035378;28;20305;-52
2021/08/21 04:29:39;;;;;;;4.45;3.08;;;;;;;;;;5035176;28;20017;-52
2021/08/21 04:32:05;;;;;;;4.82;2.97;;;;;;;;;;5034674;28;20052;-52
2021/08/21 04:34:34;;;;;;;5.40;3.05;;;;;;;;;;5035622;28;20033;-52
2021/08/21 04:37:02;;;;;;;4.72;2.95;;;;;;;;;;5034537;28;20086;-52
2021/08/21 04:39:28;;;;;;;8.93;3.08;;;;;;;;;;5034963;28;20022;-52
2021/08/21 04:41:54;;;;;;;5.78;3.17;;;;;;;;;;5035008;28;20018;-52
2021/08/21 04:44:20;;;;;;;9.68;3.47;;;;;;;;;;5035055;28;20025;-52
2021/08/21 04:46:46;;;;;;;5.28;3.10;;;;;;;;;;5034649;28;20120;-52
2021/08/21 04:49:12;;;;;;;7.90;3.88;;;;;;;;;;5034784;28;20340;-52
2021/08/21 04:51:38;;;;;;;4.65;2.70;;;;;;;;;;5034315;28;20028;-52
2021/08/21 04:54:04;;;;;;;7.38;3.30;;;;;;;;;;5034737;28;20036;-52
2021/08/21 04:56:30;;;;;;;5.13;3.33;;;;;;;;;;5035195;28;20614;-52
2021/08/21 04:58:56;;;;;;;8.32;3.40;;;;;;;;;;5034691;28;20112;-53
2021/08/21 05:01:22;;;;;;;7.35;2.70;;;;;;;;;;5034083;28;20021;-52
2021/08/21 05:03:48;;;;;;;6.00;3.40;;;;;;;;;;5034890;28;20032;-52
2021/08/21 05:06:14;;;;;;;4.82;3.28;;;;;;;;;;5035095;28;20025;-52
2021/08/21 05:08:40;;;;;;;6.07;2.83;;;;;;;;;;5034103;28;20034;-53
2021/08/21 05:11:06;;;;;;;5.43;2.92;;;;;;;;;;5033802;28;20052;-52
2021/08/21 05:13:32;;;;;;;5.68;3.15;;;;;;;;;;5034865;28;20112;-52
2021/08/21 05:15:58;;;;;;;5.65;3.65;;;;;;;;;;5034398;28;20025;-52
2021/08/21 05:18:32;;;;;;;6.25;3.63;;;;;;;;;;5034182;28;20405;-52
2021/08/21 05:21:06;;;;;;;6.53;3.55;;;;;;;;;;5032786;28;20036;-52
2021/08/21 05:23:32;;;;;;;6.30;2.85;;;;;;;;;;5034661;28;20040;-52
2021/08/21 05:25:58;;;;;;;4.82;2.90;;;;;;;;;;5033089;28;20025;-52
2021/08/21 05:28:24;;;;;;;3.67;2.50;;;;;;;;;;5034618;28;20044;-52
2021/08/21 05:30:50;;;;;;;4.68;2.78;;;;;;;;;;5033508;28;20451;-53
2021/08/21 05:33:17;;;;;;;6.70;3.00;;;;;;;;;;5033567;28;20047;-52
2021/08/21 05:35:44;;;;;;;9.40;2.75;;;;;;;;;;5034363;28;20046;-53
2021/08/21 05:38:11;;;;;;;5.00;3.10;;;;;;;;;;5034195;28;20036;-53
2021/08/21 05:40:37;;;;;;;9.40;3.63;;;;;;;;;;5033379;28;20362;-52
2021/08/21 05:43:03;;;;;;;5.95;3.50;;;;;;;;;;5033928;28;20022;-52
2021/08/21 05:45:30;;;;;;;6.93;3.30;;;;;;;;;;5033614;28;20033;-52
2021/08/21 05:47:56;;;;;;;6.22;2.83;;;;;;;;;;5033704;28;20040;-52
2021/08/21 05:50:23;;;;;;;3.70;2.53;;;;;;;;;;5033602;28;20021;-52
2021/08/21 05:52:49;;;;;;;5.35;2.88;;;;;;;;;;5033444;28;20075;-52
2021/08/21 05:55:15;;;;;;;4.63;2.95;;;;;;;;;;5033958;28;20021;-52
2021/08/21 05:57:41;;;;;;;5.72;2.78;;;;;;;;;;5033382;28;20075;-52
2021/08/21 06:00:07;;;;;;;5.95;3.00;;;;;;;;;;5033215;28;20470;-52
2021/08/21 06:02:33;;;;;;;7.07;3.08;;;;;;;;;;5032712;28;20112;-52
2021/08/21 06:04:59;;;;;;;7.10;3.60;;;;;;;;;;5033701;28;20021;-52
2021/08/21 06:07:25;;;;;;;6.28;3.45;;;;;;;;;;5033706;28;20307;-52
2021/08/21 06:09:51;;;;;;;5.75;3.15;;;;;;;;;;5032980;28;20025;-52
2021/08/21 06:12:17;;;;;;;7.22;3.30;;;;;;;;;;5033337;28;20018;-53
2021/08/21 06:14:44;;;;;;;3.70;2.70;;;;;;;;;;5033378;28;20038;-53
2021/08/21 06:17:10;;;;;;;6.85;3.78;;;;;;;;;;5033160;28;20462;-52
2021/08/21 06:19:36;;;;;;;5.30;3.38;;;;;;;;;;5032723;28;20053;-53
2021/08/21 06:22:02;;;;;;;8.10;3.78;;;;;;;;;;5032957;28;20329;-52
2021/08/21 06:24:28;;;;;;;6.68;3.60;;;;;;;;;;5033322;28;20075;-52
2021/08/21 06:26:54;;;;;;;5.07;3.13;;;;;;;;;;5031650;28;20461;-52
2021/08/21 06:29:20;;;;;;;6.10;3.72;;;;;;;;;;5032851;28;20026;-52
2021/08/21 06:31:46;;;;;;;7.22;3.78;;;;;;;;;;5032887;28;20329;-52
2021/08/21 06:34:12;;;;;;;5.85;3.50;;;;;;;;;;5031901;28;20072;-52
2021/08/21 06:36:38;;;;;;;7.75;4.05;;;;;;;;;;5033002;28;20086;-52
2021/08/21 06:39:04;;;;;;;9.88;4.63;;;;;;;;;;5032769;28;20022;-52
2021/08/21 06:41:30;;;;;;;10.00;5.40;;;;;;;;;;5032327;28;20513;-52
2021/08/21 06:43:56;;;;;;;9.95;4.43;;;;;;;;;;5032943;28;20025;-53
2021/08/21 06:46:22;;;;;;;8.43;4.20;;;;;;;;;;5032891;28;20410;-52
2021/08/21 06:48:48;;;;;;;7.78;4.15;;;;;;;;;;5032856;28;20049;-53
2021/08/21 06:51:14;;;;;;;9.43;3.80;;;;;;;;;;5032469;28;20424;-53
2021/08/21 06:53:40;;;;;;;8.18;4.35;;;;;;;;;;5032742;28;20057;-53
2021/08/21 06:56:07;;;;;;;12.60;4.72;;;;;;;;;;5032907;28;20444;-52
2021/08/21 06:58:33;;;;;;;5.88;3.58;;;;;;;;;;5032605;28;20030;-52
2021/08/21 07:00:59;;;;;;;9.75;4.40;;;;;;;;;;5032062;28;20460;-53
2021/08/21 07:03:25;;;;;;;10.15;4.57;;;;;;;;;;5032375;28;20039;-52
2021/08/21 07:05:51;;;;;;;8.95;4.90;;;;;;;;;;5032935;28;20038;-53
2021/08/21 07:08:17;;;;;;;15.20;6.30;;;;;;;;;;5032506;28;20034;-52
2021/08/21 07:10:45;;;;;;;6.30;3.75;;;;;;;;;;5031948;28;20098;-53
2021/08/21 07:13:11;;;;;;;9.52;5.30;;;;;;;;;;5032837;28;20040;-52
2021/08/21 07:15:37;;;;;;;7.00;4.25;;;;;;;;;;5033102;28;20063;-52
2021/08/21 07:18:03;;;;;;;16.10;5.85;;;;;;;;;;5032254;28;20021;-52
2021/08/21 07:20:29;;;;;;;8.40;5.07;;;;;;;;;;5032363;28;20029;-53
2021/08/21 07:22:55;;;;;;;11.85;5.80;;;;;;;;;;5032314;28;20028;-52
2021/08/21 07:25:21;;;;;;;10.80;6.18;;;;;;;;;;5031213;28;20154;-52
2021/08/21 07:27:47;;;;;;;7.40;5.05;;;;;;;;;;5032653;28;20355;-52
2021/08/21 07:30:13;;;;;;;10.55;4.95;;;;;;;;;;5031912;28;20037;-52
2021/08/21 07:32:39;;;;;;;10.98;5.07;;;;;;;;;;5032157;28;20037;-52
2021/08/21 07:35:05;;;;;;;11.60;6.40;;;;;;;;;;5031782;28;20034;-52
2021/08/21 07:37:33;;;;;;;11.30;6.53;;;;;;;;;;5032661;28;20053;-52
2021/08/21 07:39:59;;;;;;;9.23;4.93;;;;;;;;;;5031539;28;20413;-52
2021/08/21 07:42:25;;;;;;;11.55;6.00;;;;;;;;;;5032274;28;20446;-52
2021/08/21 07:44:51;;;;;;;13.00;6.20;;;;;;;;;;5034041;28;20069;-52
2021/08/21 07:47:17;;;;;;;17.92;6.18;;;;;;;;;;5036099;28;20017;-52
2021/08/21 07:49:43;;;;;;;9.93;6.30;;;;;;;;;;5035431;28;20494;-52
2021/08/21 07:52:09;;;;;;;13.27;6.65;;;;;;;;;;5036003;28;20116;-53
2021/08/21 07:54:35;;;;;;;11.80;6.43;;;;;;;;;;5035982;28;20120;-52
2021/08/21 07:57:01;;;;;;;9.60;6.13;;;;;;;;;;5036128;28;20104;-52
2021/08/21 07:59:27;;;;;;;11.77;5.18;;;;;;;;;;5035368;28;20056;-52
2021/08/21 08:01:53;;;;;;;10.60;5.95;;;;;;;;;;5035397;28;20056;-52
2021/08/21 08:04:19;;;;;;;17.05;7.40;;;;;;;;;;5035617;28;20040;-52
2021/08/21 08:06:45;;;;;;;14.95;6.88;;;;;;;;;;5035748;28;20033;-52
2021/08/21 08:09:11;;;;;;;11.30;6.50;;;;;;;;;;5035490;28;20053;-52
2021/08/21 08:11:37;;;;;;;14.30;6.60;;;;;;;;;;5035512;28;20029;-52
2021/08/21 08:14:03;;;;;;;9.27;5.43;;;;;;;;;;5035636;28;20352;-53
2021/08/21 08:16:29;;;;;;;10.95;6.20;;;;;;;;;;5036001;28;20032;-52
2021/08/21 08:18:55;;;;;;;8.80;5.65;;;;;;;;;;5035121;28;20030;-53
2021/08/21 08:21:22;;;;;;;10.60;5.68;;;;;;;;;;5034709;28;20055;-52
2021/08/21 08:23:48;;;;;;;12.93;6.28;;;;;;;;;;5035484;28;20040;-53
2021/08/21 08:26:14;;;;;;;13.63;6.53;;;;;;;;;;5033971;28;20025;-52
2021/08/21 08:28:40;;;;;;;10.15;5.75;;;;;;;;;;5035897;28;20266;-52
2021/08/21 08:31:06;;;;;;;13.57;7.65;;;;;;;;;;5032975;28;20057;-52
2021/08/21 08:33:34;;;;;;;12.02;6.22;;;;;;;;;;5035282;28;20041;-52
2021/08/21 08:36:00;;;;;;;12.73;7.78;;;;;;;;;;5035080;28;20101;-53
2021/08/21 08:38:26;;;;;;;15.20;8.05;;;;;;;;;;5035046;28;20486;-52
2021/08/21 08:40:52;;;;;;;11.40;6.53;;;;;;;;;;5034501;28;20125;-52
2021/08/21 08:43:19;;;;;;;15.05;7.05;;;;;;;;;;5035281;28;20434;-52
2021/08/21 08:45:46;;;;;;;11.68;6.40;;;;;;;;;;5034833;28;20136;-53
2021/08/21 08:48:13;;;;;;;15.98;7.90;;;;;;;;;;5035382;28;20033;-52
2021/08/21 08:50:40;;;;;;;10.27;6.00;;;;;;;;;;5033885;28;20493;-52
2021/08/21 08:53:06;;;;;;;11.82;7.20;;;;;;;;;;5035059;28;20100;-53
2021/08/21 08:55:32;;;;;;;11.25;6.72;;;;;;;;;;5034020;28;20057;-53
2021/08/21 08:57:59;;;;;;;13.13;7.40;;;;;;;;;;5034554;28;20060;-53
2021/08/21 09:00:25;;;;;;;17.45;8.25;;;;;;;;;;5034182;28;20025;-52
2021/08/21 09:02:53;;;;;;;16.15;7.38;;;;;;;;;;5034807;28;20359;-53
2021/08/21 09:05:20;;;;;;;15.65;6.28;;;;;;;;;;5035001;28;20021;-53
2021/08/21 09:07:46;;;;;;;14.20;6.53;;;;;;;;;;5034720;28;20029;-52
2021/08/21 09:10:13;;;;;;;13.52;7.15;;;;;;;;;;5035358;28;20017;-52
2021/08/21 09:12:39;;;;;;;13.27;6.43;;;;;;;;;;5043531;28;20029;-52
2021/08/21 09:15:25;;;;;;;10.05;5.63;;;;;;;;;;5038400;28;20029;-53
2021/08/21 09:17:59;;;;;;;13.63;6.40;;;;;;;;;;5054211;28;20025;-52
2021/08/21 09:20:25;;;;;;;11.05;6.20;;;;;;;;;;5054244;28;20025;-53
2021/08/21 09:22:51;;;;;;;13.05;7.15;;;;;;;;;;5053467;28;20458;-52
2021/08/21 09:25:30;;;;;;;10.57;6.20;;;;;;;;;;5041319;28;20032;-52
2021/08/21 09:27:56;;;;;;;22.15;8.10;;;;;;;;;;5034475;28;20064;-52
2021/08/21 09:30:27;;;;;;;11.32;5.95;;;;;;;;;;5033701;28;20400;-52
2021/08/21 09:33:02;;;;;;;14.63;5.07;;;;;;;;;;5034016;28;20037;-52
2021/08/21 09:35:32;;;;;;;11.45;6.13;;;;;;;;;;5034311;28;20025;-52
2021/08/21 09:37:59;;;;;;;10.88;5.18;;;;;;;;;;5034315;28;20037;-52
2021/08/21 09:40:29;;;;;;;8.88;5.45;;;;;;;;;;5033583;28;20030;-52
2021/08/21 09:42:55;;;;;;;;;;;;;;;;;;5033705;28;20030;-52
2021/08/21 09:45:22;;;;;;;11.43;6.15;;;;;;;;;;5033816;28;19916;-52
2021/08/21 09:47:48;;;;;;;12.93;5.63;;;;;;;;;;5034258;28;20341;-52
2021/08/21 09:50:15;;;;;;;9.45;5.90;;;;;;;;;;5032927;28;20651;-52
2021/08/21 09:52:42;;;;;;;13.55;6.28;;;;;;;;;;5032987;28;20080;-52
2021/08/21 09:55:09;;;;;;;9.40;5.88;;;;;;;;;;5033660;28;20355;-52
2021/08/21 09:57:37;;;;;;;8.77;6.10;;;;;;;;;;5033589;28;20455;-52
2021/08/21 10:00:04;;;;;;;12.15;5.68;;;;;;;;;;5033201;28;20455;-53
2021/08/21 10:02:31;;;;;;;10.30;5.15;;;;;;;;;;5032679;28;20026;-52
2021/08/21 10:04:57;;;;;;;10.32;5.65;;;;;;;;;;5032917;28;20065;-53
2021/08/21 10:07:25;;;;;;;13.95;7.55;;;;;;;;;;5032792;28;20017;-52
2021/08/21 10:09:53;;;;;;;9.38;4.88;;;;;;;;;;5032754;28;20030;-52
2021/08/21 10:12:22;;;;;;;13.68;5.78;;;;;;;;;;5030520;28;20455;-52
2021/08/21 10:14:50;;;;;;;7.87;4.93;;;;;;;;;;5033137;28;20036;-52
2021/08/21 10:17:19;;;;;;;8.93;4.90;;;;;;;;;;5032840;28;20075;-52
2021/08/21 10:19:46;;;;;;;8.52;4.45;;;;;;;;;;5032847;28;20026;-52
2021/08/21 10:22:12;;;;;;;10.75;5.88;;;;;;;;;;5032758;28;20029;-52
2021/08/21 10:24:43;;;;;;;11.18;5.38;;;;;;;;;;5032676;28;20120;-52
2021/08/21 10:27:08;;;;;;;;;;;;;;;;;;5033784;28;20044;-52
2021/08/21 10:29:35;;;;;;;11.27;4.85;;;;;;;;;;5032890;28;20324;-52
2021/08/21 10:32:01;;;;;;;11.65;5.65;;;;;;;;;;5031969;28;20103;-52
2021/08/21 10:34:27;;;;;;;11.43;5.47;;;;;;;;;;5033352;28;20112;-52
2021/08/21 10:36:55;;;;;;;9.80;4.78;;;;;;;;;;5015523;28;20128;-52
2021/08/21 10:39:24;;;;;;;8.82;5.72;;;;;;;;;;5013245;28;20495;-52
2021/08/21 10:41:52;;;;;;;8.50;5.40;;;;;;;;;;5030082;28;20030;-52
2021/08/21 10:44:36;;;;;;;10.38;5.55;;;;;;;;;;5032005;28;20033;-52
2021/08/21 10:47:02;;;;;;;14.02;4.78;;;;;;;;;;5032323;28;20447;-52
2021/08/21 10:49:42;;;;;;;25.88;5.03;;;;;;;;;;5032302;28;20120;-52
2021/08/21 10:52:28;;;;;;;9.60;5.68;;;;;;;;;;5032265;28;20074;-52
2021/08/21 10:54:54;;;;;;;10.57;4.85;;;;;;;;;;5032348;28;20041;-52
2021/08/21 10:57:26;;;;;;;16.42;4.93;;;;;;;;;;5032663;28;20105;-52
2021/08/21 10:59:52;;;;;;;15.38;5.00;;;;;;;;;;5032418;28;20025;-52
2021/08/21 11:02:21;;;;;;;11.40;5.07;;;;;;;;;;5032448;28;20111;-53
2021/08/21 11:04:48;;;;;;;9.02;4.43;;;;;;;;;;5033009;28;20386;-52
2021/08/21 11:07:32;;;;;;;10.93;5.43;;;;;;;;;;5031495;28;20083;-52
2021/08/21 11:10:15;;;;;;;11.00;5.22;;;;;;;;;;5032088;28;20021;-52
2021/08/21 11:12:44;;;;;;;11.40;4.93;;;;;;;;;;5032365;28;20034;-52
2021/08/21 11:15:15;;;;;;;6.85;4.07;;;;;;;;;;5032846;28;20029;-52
2021/08/21 11:17:41;;;;;;;8.15;4.90;;;;;;;;;;5032829;28;20026;-53
2021/08/21 11:20:33;;;;;;;8.05;4.72;;;;;;;;;;5035122;28;20028;-52
2021/08/21 11:23:05;;;;;;;7.05;4.53;;;;;;;;;;5036016;28;20037;-52
2021/08/21 11:25:31;;;;;;;7.88;4.63;;;;;;;;;;5036057;28;20034;-52
2021/08/21 11:28:05;;;;;;;9.10;4.47;;;;;;;;;;5036501;28;20506;-52
2021/08/21 11:30:31;;;;;;;10.30;5.07;;;;;;;;;;5036168;28;20033;-53
2021/08/21 11:32:59;;;;;;;8.63;4.57;;;;;;;;;;5036041;28;20047;-52
2021/08/21 11:35:28;;;;;;;11.20;4.43;;;;;;;;;;5031165;28;20013;-52
2021/08/21 11:37:55;;;;;;;10.65;5.25;;;;;;;;;;5016056;28;20448;-52
2021/08/21 11:40:21;;;;;;;7.13;4.30;;;;;;;;;;5016104;28;20022;-53
2021/08/21 11:42:49;;;;;;;12.68;4.95;;;;;;;;;;5014593;28;20018;-53
2021/08/21 11:45:15;;;;;;;8.98;4.40;;;;;;;;;;5017448;28;20088;-53
2021/08/21 11:47:42;;;;;;;9.95;4.45;;;;;;;;;;5035775;28;20459;-52
2021/08/21 11:50:31;;;;;;;12.88;4.43;;;;;;;;;;5036037;28;20033;-52
2021/08/21 11:52:58;;;;;;;11.30;4.80;;;;;;;;;;5035572;28;20040;-52
2021/08/21 11:55:25;;;;;;;14.57;4.80;;;;;;;;;;5036315;28;20048;-53
2021/08/21 11:57:52;;;;;;;9.20;4.95;;;;;;;;;;5036096;28;20067;-52
2021/08/21 12:00:22;;;;;;;8.73;4.72;;;;;;;;;;5034879;28;20410;-52
2021/08/21 12:02:57;;;;;;;10.60;4.93;;;;;;;;;;5032855;28;20029;-53
2021/08/21 12:05:29;;;;;;;9.00;4.80;;;;;;;;;;5035861;28;20039;-53
2021/08/21 12:07:56;;;;;;;14.75;5.53;;;;;;;;;;5034893;28;20531;-52
2021/08/21 12:10:22;;;;;;;14.10;4.90;;;;;;;;;;5034585;28;20025;-53
2021/08/21 12:12:55;;;;;;;8.02;4.63;;;;;;;;;;5034146;28;20037;-52
2021/08/21 12:15:22;;;;;;;10.30;5.45;;;;;;;;;;5035429;28;20044;-52
2021/08/21 12:17:48;;;;;;;8.75;4.78;;;;;;;;;;5035378;28;20017;-52
2021/08/21 12:20:14;;;;;;;9.18;4.57;;;;;;;;;;5034389;28;20112;-53
2021/08/21 12:22:41;;;;;;;9.65;4.88;;;;;;;;;;5034944;28;20041;-52
2021/08/21 12:25:08;;;;;;;8.05;5.28;;;;;;;;;;5034821;28;20034;-52
2021/08/21 12:27:34;;;;;;;12.65;5.50;;;;;;;;;;5034839;28;20049;-52
2021/08/21 12:30:09;;;;;;;11.85;5.53;;;;;;;;;;5035083;28;20064;-52
2021/08/21 12:32:35;;;;;;;13.27;6.35;;;;;;;;;;5034960;28;20134;-53
2021/08/21 12:35:20;;;;;;;12.77;4.78;;;;;;;;;;5035043;28;20021;-52
2021/08/21 12:38:02;;;;;;;8.00;4.60;;;;;;;;;;5034723;28;20026;-52
2021/08/21 12:40:28;;;;;;;9.32;5.03;;;;;;;;;;5035065;28;20021;-53
2021/08/21 12:43:20;;;;;;;8.50;4.97;;;;;;;;;;5034389;28;20444;-52
2021/08/21 12:45:48;;;;;;;9.23;4.47;;;;;;;;;;5034885;28;20034;-52
2021/08/21 12:48:14;;;;;;;5.88;3.97;;;;;;;;;;5033254;28;20036;-52
2021/08/21 12:50:41;;;;;;;7.15;4.43;;;;;;;;;;5033974;28;20021;-52
2021/08/21 12:53:08;;;;;;;9.85;4.70;;;;;;;;;;5033787;28;20460;-53
2021/08/21 12:55:34;;;;;;;9.43;4.20;;;;;;;;;;5034527;28;20112;-52
2021/08/21 12:58:07;;;;;;;8.43;4.20;;;;;;;;;;5034368;28;20490;-53
2021/08/21 13:00:34;;;;;;;10.68;4.32;;;;;;;;;;5031224;28;20022;-52
2021/08/21 13:03:11;;;;;;;6.32;3.88;;;;;;;;;;5023781;28;20037;-52
2021/08/21 13:05:37;;;;;;;8.20;4.07;;;;;;;;;;5034312;28;20104;-52
2021/08/21 13:08:05;;;;;;;7.55;4.18;;;;;;;;;;5034952;28;20083;-53
2021/08/21 13:10:32;;;;;;;7.78;4.47;;;;;;;;;;5025903;28;20034;-52
2021/08/21 13:12:58;;;;;;;7.38;4.30;;;;;;;;;;5014006;28;20030;-52
2021/08/21 13:15:24;;;;;;;8.77;4.45;;;;;;;;;;5016069;28;20112;-52
2021/08/21 13:17:50;;;;;;;8.50;3.80;;;;;;;;;;5032635;28;20029;-52
2021/08/21 13:20:18;;;;;;;9.60;4.35;;;;;;;;;;5034292;28;20029;-52
2021/08/21 13:22:46;;;;;;;10.32;4.10;;;;;;;;;;5033497;28;20049;-52
2021/08/21 13:25:12;;;;;;;7.60;3.90;;;;;;;;;;5034110;28;20489;-52
2021/08/21 13:27:38;;;;;;;7.78;4.15;;;;;;;;;;5032822;28;20432;-53
2021/08/21 13:30:05;;;;;;;8.38;4.45;;;;;;;;;;5033568;28;20109;-52
2021/08/21 13:32:31;;;;;;;8.77;4.32;;;;;;;;;;5033368;28;20029;-53
2021/08/21 13:34:57;;;;;;;6.82;4.38;;;;;;;;;;5034284;28;20206;-52
2021/08/21 13:37:23;;;;;;;7.97;4.20;;;;;;;;;;5033407;28;20450;-53
2021/08/21 13:39:49;;;;;;;9.32;4.40;;;;;;;;;;5034073;28;20395;-52
2021/08/21 13:42:15;;;;;;;6.97;3.80;;;;;;;;;;5033211;28;20024;-52
2021/08/21 13:44:41;;;;;;;7.32;3.45;;;;;;;;;;5034168;28;20030;-52
2021/08/21 13:47:07;;;;;;;9.23;4.18;;;;;;;;;;5033773;28;20059;-52
2021/08/21 13:49:34;;;;;;;8.20;3.97;;;;;;;;;;5033637;28;20092;-52
2021/08/21 13:52:00;;;;;;;6.32;4.40;;;;;;;;;;5033639;28;20047;-52
2021/08/21 13:54:29;;;;;;;6.63;3.78;;;;;;;;;;5033676;28;20033;-53
2021/08/21 13:56:55;;;;;;;6.47;4.00;;;;;;;;;;5032183;28;20025;-52
2021/08/21 13:59:20;;;;;;;6.72;3.58;;;;;;;;;;5033162;28;20033;-53
2021/08/21 14:01:46;;;;;;;9.13;4.72;;;;;;;;;;5032389;28;20371;-52
2021/08/21 14:04:12;;;;;;;6.85;4.57;;;;;;;;;;5033673;28;20057;-53
2021/08/21 14:06:39;;;;;;;7.38;3.63;;;;;;;;;;5033278;28;20028;-52
2021/08/21 14:09:05;;;;;;;7.40;4.00;;;;;;;;;;5033219;28;20036;-52
2021/08/21 14:11:32;;;;;;;8.43;4.35;;;;;;;;;;5033125;28;20359;-52
2021/08/21 14:13:58;;;;;;;5.80;3.83;;;;;;;;;;5033280;28;20033;-53
2021/08/21 14:16:24;;;;;;;6.63;3.80;;;;;;;;;;5033653;28;20036;-53
2021/08/21 14:18:50;;;;;;;5.43;3.67;;;;;;;;;;5033320;28;20072;-52
2021/08/21 14:21:16;;;;;;;7.75;3.92;;;;;;;;;;5032958;28;20025;-52
2021/08/21 14:23:42;;;;;;;6.20;4.38;;;;;;;;;;5032833;28;20037;-53
2021/08/21 14:26:08;;;;;;;8.73;3.53;;;;;;;;;;5033657;28;20030;-52
2021/08/21 14:28:34;;;;;;;7.85;4.22;;;;;;;;;;5032548;28;20025;-52
2021/08/21 14:31:01;;;;;;;8.32;4.00;;;;;;;;;;5030619;28;20022;-52
2021/08/21 14:33:27;;;;;;;11.43;4.10;;;;;;;;;;5031691;28;20091;-52
2021/08/21 14:35:53;;;;;;;6.85;4.30;;;;;;;;;;5023521;28;20395;-52
2021/08/21 14:38:19;;;;;;;6.97;3.72;;;;;;;;;;5013141;28;20030;-53
2021/08/21 14:40:46;;;;;;;6.43;3.67;;;;;;;;;;5026458;28;20325;-52